createdAt,value
2022-09-07T00:00:14.995Z,1009.3
2022-09-07T00:01:17.851Z,1009.2
2022-09-07T00:02:21.542Z,1009.2
2022-09-07T00:03:24.888Z,1009.2
2022-09-07T00:04:29.155Z,1009.2
2022-09-07T00:05:32.764Z,1009.2
2022-09-07T00:06:35.843Z,1009.1
2022-09-07T00:07:38.632Z,1009.2
2022-09-07T00:08:41.236Z,1009.1
2022-09-07T00:09:44.503Z,1009.1
2022-09-07T00:10:47.674Z,1009.1
2022-09-07T00:11:50.743Z,1009.1
2022-09-07T00:12:54.260Z,1009.1
2022-09-07T00:13:57.141Z,1009.1
2022-09-07T00:15:00.018Z,1009
2022-09-07T00:16:02.992Z,1009.1
2022-09-07T00:17:06.003Z,1009
2022-09-07T00:18:08.873Z,1009
2022-09-07T00:19:11.866Z,1009
2022-09-07T00:20:14.456Z,1009
2022-09-07T00:21:17.504Z,1009
2022-09-07T00:22:19.823Z,1009
2022-09-07T00:23:22.608Z,1009
2022-09-07T00:24:25.401Z,1009
2022-09-07T00:25:32.097Z,1009.1
2022-09-07T00:26:35.667Z,1009.1
2022-09-07T00:27:38.172Z,1009.1
2022-09-07T00:28:41.440Z,1009.1
2022-09-07T00:29:44.310Z,1009
2022-09-07T00:30:47.265Z,1009
2022-09-07T00:31:50.869Z,1009.1
2022-09-07T00:32:53.772Z,1009.1
2022-09-07T00:33:56.753Z,1009
2022-09-07T00:35:00.141Z,1009.1
2022-09-07T00:36:02.449Z,1009
2022-09-07T00:37:05.804Z,1009
2022-09-07T00:38:08.325Z,1009
2022-09-07T00:39:11.773Z,1009
2022-09-07T00:40:14.282Z,1009
2022-09-07T00:41:17.980Z,1009
2022-09-07T00:42:21.995Z,1009
2022-09-07T00:43:25.103Z,1009
2022-09-07T00:44:28.174Z,1009
2022-09-07T00:45:31.161Z,1009
2022-09-07T00:46:34.854Z,1009
2022-09-07T00:47:37.852Z,1008.9
2022-09-07T00:48:40.454Z,1009
2022-09-07T00:49:43.890Z,1009
2022-09-07T00:50:46.773Z,1009
2022-09-07T00:51:49.927Z,1009
2022-09-07T00:52:52.988Z,1009.1
2022-09-07T00:53:55.820Z,1009.1
2022-09-07T00:54:58.965Z,1009.1
2022-09-07T00:56:01.655Z,1009
2022-09-07T00:57:04.521Z,1009
2022-09-07T00:58:07.316Z,1009.1
2022-09-07T00:59:10.198Z,1009
2022-09-07T01:00:12.989Z,1009
2022-09-07T01:01:16.201Z,1009
2022-09-07T01:02:19.691Z,1009
2022-09-07T01:03:23.630Z,1009
2022-09-07T01:04:26.800Z,1009
2022-09-07T01:05:29.943Z,1009
2022-09-07T01:06:32.453Z,1009
2022-09-07T01:07:35.322Z,1009
2022-09-07T01:08:37.808Z,1009
2022-09-07T01:09:40.941Z,1009
2022-09-07T01:10:43.946Z,1008.9
2022-09-07T01:11:46.944Z,1009
2022-09-07T01:12:49.733Z,1008.9
2022-09-07T01:13:51.972Z,1008.9
2022-09-07T01:14:54.489Z,1008.9
2022-09-07T01:15:57.754Z,1008.9
2022-09-07T01:17:01.058Z,1008.9
2022-09-07T01:18:03.941Z,1008.9
2022-09-07T01:19:06.925Z,1008.9
2022-09-07T01:20:10.353Z,1008.9
2022-09-07T01:21:13.700Z,1009
2022-09-07T01:22:16.575Z,1008.8
2022-09-07T01:23:19.842Z,1008.9
2022-09-07T01:24:22.638Z,1008.9
2022-09-07T01:25:25.512Z,1008.9
2022-09-07T01:26:28.302Z,1008.9
2022-09-07T01:27:31.461Z,1008.9
2022-09-07T01:28:33.488Z,1008.9
2022-09-07T01:29:36.588Z,1008.8
2022-09-07T01:30:39.927Z,1008.8
2022-09-07T01:31:42.614Z,1008.8
2022-09-07T01:32:45.241Z,1008.8
2022-09-07T01:33:48.401Z,1008.9
2022-09-07T01:34:51.478Z,1008.9
2022-09-07T01:35:54.544Z,1008.8
2022-09-07T01:36:57.139Z,1008.8
2022-09-07T01:38:00.222Z,1008.8
2022-09-07T01:39:02.738Z,1008.8
2022-09-07T01:40:05.480Z,1008.8
2022-09-07T01:41:08.759Z,1008.8
2022-09-07T01:42:10.798Z,1008.8
2022-09-07T01:43:14.160Z,1008.8
2022-09-07T01:44:17.028Z,1008.8
2022-09-07T01:45:20.259Z,1008.9
2022-09-07T01:46:23.488Z,1008.8
2022-09-07T01:47:26.610Z,1008.8
2022-09-07T01:48:29.558Z,1008.9
2022-09-07T01:49:33.344Z,1008.8
2022-09-07T01:50:36.899Z,1008.8
2022-09-07T01:51:39.130Z,1008.8
2022-09-07T01:52:42.197Z,1008.8
2022-09-07T01:53:44.804Z,1008.9
2022-09-07T01:54:48.479Z,1008.8
2022-09-07T01:55:51.365Z,1008.8
2022-09-07T01:56:54.152Z,1008.8
2022-09-07T01:57:57.042Z,1008.8
2022-09-07T01:59:00.266Z,1008.7
2022-09-07T02:00:03.052Z,1008.7
2022-09-07T02:01:05.985Z,1008.7
2022-09-07T02:02:08.845Z,1008.7
2022-09-07T02:03:12.148Z,1008.6
2022-09-07T02:04:14.914Z,1008.6
2022-09-07T02:05:18.247Z,1008.6
2022-09-07T02:06:21.170Z,1008.6
2022-09-07T02:07:23.953Z,1008.6
2022-09-07T02:08:27.476Z,1008.6
2022-09-07T02:09:29.883Z,1008.6
2022-09-07T02:10:32.749Z,1008.5
2022-09-07T02:11:35.613Z,1008.6
2022-09-07T02:12:38.677Z,1008.5
2022-09-07T02:13:41.744Z,1008.6
2022-09-07T02:14:51.977Z,1008.6
2022-09-07T02:15:56.007Z,1008.6
2022-09-07T02:16:59.172Z,1008.6
2022-09-07T02:18:01.594Z,1008.6
2022-09-07T02:19:04.934Z,1008.6
2022-09-07T02:20:07.641Z,1008.6
2022-09-07T02:21:10.790Z,1008.6
2022-09-07T02:22:14.229Z,1008.5
2022-09-07T02:23:17.499Z,1008.5
2022-09-07T02:24:20.566Z,1008.5
2022-09-07T02:25:23.356Z,1008.5
2022-09-07T02:26:26.237Z,1008.5
2022-09-07T02:27:29.384Z,1008.5
2022-09-07T02:28:32.794Z,1008.5
2022-09-07T02:29:36.340Z,1008.5
2022-09-07T02:30:39.047Z,1008.4
2022-09-07T02:31:42.964Z,1008.4
2022-09-07T02:32:44.928Z,1008.4
2022-09-07T02:33:48.383Z,1008.4
2022-09-07T02:34:51.466Z,1008.5
2022-09-07T02:35:54.258Z,1008.5
2022-09-07T02:36:57.406Z,1008.5
2022-09-07T02:38:00.562Z,1008.5
2022-09-07T02:39:03.981Z,1008.5
2022-09-07T02:40:07.304Z,1008.5
2022-09-07T02:41:10.120Z,1008.5
2022-09-07T02:42:13.193Z,1008.5
2022-09-07T02:43:16.409Z,1008.5
2022-09-07T02:44:19.271Z,1008.5
2022-09-07T02:45:22.051Z,1008.5
2022-09-07T02:46:25.311Z,1008.4
2022-09-07T02:47:29.097Z,1008.4
2022-09-07T02:48:31.799Z,1008.5
2022-09-07T02:49:34.959Z,1008.3
2022-09-07T02:50:38.026Z,1008.4
2022-09-07T02:51:41.085Z,1008.4
2022-09-07T02:52:44.230Z,1008.3
2022-09-07T02:53:46.513Z,1008.3
2022-09-07T02:54:49.647Z,1008.2
2022-09-07T02:55:52.732Z,1008.2
2022-09-07T02:56:56.156Z,1008.1
2022-09-07T02:57:58.947Z,1008.1
2022-09-07T02:59:01.730Z,1008.1
2022-09-07T03:00:04.592Z,1008.1
2022-09-07T03:01:08.272Z,1008.1
2022-09-07T03:02:11.465Z,1008.1
2022-09-07T03:03:14.856Z,1008.1
2022-09-07T03:04:17.967Z,1008.1
2022-09-07T03:05:20.489Z,1008
2022-09-07T03:06:23.915Z,1008
2022-09-07T03:07:26.904Z,1008
2022-09-07T03:08:30.235Z,1008
2022-09-07T03:09:33.364Z,1008
2022-09-07T03:10:36.515Z,1008
2022-09-07T03:11:39.686Z,1008
2022-09-07T03:12:42.555Z,1008
2022-09-07T03:13:45.970Z,1008
2022-09-07T03:14:49.108Z,1008
2022-09-07T03:15:56.603Z,1008
2022-09-07T03:16:59.646Z,1007.9
2022-09-07T03:18:02.804Z,1007.9
2022-09-07T03:19:06.157Z,1007.9
2022-09-07T03:20:09.312Z,1008
2022-09-07T03:21:11.945Z,1008
2022-09-07T03:22:15.121Z,1008
2022-09-07T03:23:18.281Z,1008
2022-09-07T03:24:21.231Z,1008
2022-09-07T03:25:24.336Z,1008
2022-09-07T03:26:27.447Z,1008
2022-09-07T03:27:30.322Z,1008
2022-09-07T03:28:32.764Z,1008
2022-09-07T03:29:42.064Z,1008
2022-09-07T03:30:45.668Z,1007.9
2022-09-07T03:31:48.452Z,1007.9
2022-09-07T03:32:51.443Z,1007.9
2022-09-07T03:33:54.598Z,1007.9
2022-09-07T03:34:58.075Z,1007.9
2022-09-07T03:36:01.227Z,1008
2022-09-07T03:37:04.029Z,1008
2022-09-07T03:38:06.816Z,1008
2022-09-07T03:39:10.230Z,1008.1
2022-09-07T03:40:14.188Z,1008
2022-09-07T03:41:17.384Z,1008
2022-09-07T03:42:20.531Z,1008
2022-09-07T03:43:23.244Z,1008
2022-09-07T03:44:26.460Z,1007.9
2022-09-07T03:45:28.771Z,1007.9
2022-09-07T03:46:32.108Z,1007.9
2022-09-07T03:47:36.044Z,1007.9
2022-09-07T03:48:39.311Z,1007.9
2022-09-07T03:49:42.865Z,1007.9
2022-09-07T03:50:45.653Z,1007.9
2022-09-07T03:51:48.526Z,1007.9
2022-09-07T03:52:51.401Z,1007.9
2022-09-07T03:53:54.363Z,1007.9
2022-09-07T03:54:57.516Z,1007.9
2022-09-07T03:56:00.311Z,1007.8
2022-09-07T03:57:03.097Z,1007.8
2022-09-07T03:58:05.602Z,1007.8
2022-09-07T03:59:08.034Z,1007.8
2022-09-07T04:00:10.833Z,1007.8
2022-09-07T04:01:14.371Z,1007.8
2022-09-07T04:02:17.867Z,1007.8
2022-09-07T04:03:21.033Z,1007.8
2022-09-07T04:04:23.700Z,1007.8
2022-09-07T04:05:26.763Z,1007.8
2022-09-07T04:06:29.647Z,1007.8
2022-09-07T04:07:33.103Z,1007.8
2022-09-07T04:08:36.430Z,1007.8
2022-09-07T04:09:39.222Z,1007.8
2022-09-07T04:10:42.376Z,1007.8
2022-09-07T04:11:45.310Z,1007.8
2022-09-07T04:12:48.734Z,1007.9
2022-09-07T04:13:51.883Z,1007.9
2022-09-07T04:14:55.219Z,1007.9
2022-09-07T04:15:57.808Z,1007.9
2022-09-07T04:17:00.844Z,1007.9
2022-09-07T04:18:04.649Z,1007.9
2022-09-07T04:19:07.805Z,1007.9
2022-09-07T04:20:10.594Z,1007.9
2022-09-07T04:21:13.563Z,1007.9
2022-09-07T04:22:16.834Z,1007.9
2022-09-07T04:23:20.140Z,1007.8
2022-09-07T04:24:23.211Z,1007.9
2022-09-07T04:25:25.639Z,1007.8
2022-09-07T04:26:28.309Z,1007.8
2022-09-07T04:27:30.918Z,1007.8
2022-09-07T04:28:33.868Z,1007.9
2022-09-07T04:29:36.459Z,1007.8
2022-09-07T04:30:40.014Z,1007.8
2022-09-07T04:31:43.530Z,1007.8
2022-09-07T04:32:46.967Z,1007.8
2022-09-07T04:33:49.856Z,1007.8
2022-09-07T04:34:53.021Z,1007.8
2022-09-07T04:35:55.912Z,1007.7
2022-09-07T04:36:58.996Z,1007.7
2022-09-07T04:38:02.231Z,1007.7
2022-09-07T04:39:05.033Z,1007.6
2022-09-07T04:40:08.804Z,1007.6
2022-09-07T04:41:11.976Z,1007.6
2022-09-07T04:42:15.622Z,1007.6
2022-09-07T04:43:18.691Z,1007.6
2022-09-07T04:44:21.864Z,1007.5
2022-09-07T04:45:25.391Z,1007.5
2022-09-07T04:46:28.326Z,1007.5
2022-09-07T04:47:32.110Z,1007.5
2022-09-07T04:48:34.693Z,1007.5
2022-09-07T04:49:37.859Z,1007.5
2022-09-07T04:50:40.366Z,1007.5
2022-09-07T04:51:43.093Z,1007.4
2022-09-07T04:52:46.552Z,1007.4
2022-09-07T04:53:49.901Z,1007.4
2022-09-07T04:54:52.972Z,1007.4
2022-09-07T04:55:56.195Z,1007.4
2022-09-07T04:56:59.336Z,1007.4
2022-09-07T04:58:02.474Z,1007.4
2022-09-07T04:59:05.276Z,1007.4
2022-09-07T05:00:08.368Z,1007.3
2022-09-07T05:01:11.262Z,1007.4
2022-09-07T05:02:15.138Z,1007.4
2022-09-07T05:03:18.989Z,1007.4
2022-09-07T05:04:22.194Z,1007.4
2022-09-07T05:05:25.357Z,1007.4
2022-09-07T05:06:28.541Z,1007.4
2022-09-07T05:07:31.058Z,1007.4
2022-09-07T05:08:33.919Z,1007.5
2022-09-07T05:09:37.001Z,1007.4
2022-09-07T05:10:39.444Z,1007.4
2022-09-07T05:11:42.231Z,1007.4
2022-09-07T05:12:45.309Z,1007.4
2022-09-07T05:13:49.002Z,1007.4
2022-09-07T05:14:51.236Z,1007.4
2022-09-07T05:15:54.369Z,1007.4
2022-09-07T05:16:57.717Z,1007.4
2022-09-07T05:18:01.581Z,1007.5
2022-09-07T05:19:04.768Z,1007.5
2022-09-07T05:20:07.929Z,1007.5
2022-09-07T05:21:10.443Z,1007.5
2022-09-07T05:22:13.034Z,1007.5
2022-09-07T05:23:16.486Z,1007.5
2022-09-07T05:24:19.471Z,1007.5
2022-09-07T05:25:22.631Z,1007.5
2022-09-07T05:26:25.926Z,1007.5
2022-09-07T05:27:28.516Z,1007.5
2022-09-07T05:28:32.240Z,1007.5
2022-09-07T05:30:06.166Z,1007.6
2022-09-07T05:32:15.564Z,1007.5
2022-09-07T05:33:18.080Z,1007.5
2022-09-07T05:34:36.237Z,1007.5
2022-09-07T05:35:39.031Z,1007.5
2022-09-07T05:36:42.552Z,1007.5
2022-09-07T05:37:45.634Z,1007.5
2022-09-07T05:38:48.806Z,1007.5
2022-09-07T05:39:51.736Z,1007.5
2022-09-07T05:40:54.611Z,1007.5
2022-09-07T05:41:57.447Z,1007.5
2022-09-07T05:43:00.266Z,1007.5
2022-09-07T05:44:48.855Z,1007.5
2022-09-07T05:45:52.158Z,1007.5
2022-09-07T05:46:55.527Z,1007.5
2022-09-07T05:47:57.763Z,1007.5
2022-09-07T05:49:00.637Z,1007.5
2022-09-07T05:50:04.080Z,1007.5
2022-09-07T05:51:06.736Z,1007.5
2022-09-07T05:52:09.797Z,1007.6
2022-09-07T05:53:13.024Z,1007.5
2022-09-07T05:54:16.099Z,1007.5
2022-09-07T05:55:30.868Z,1007.5
2022-09-07T05:56:33.772Z,1007.5
2022-09-07T05:57:36.665Z,1007.5
2022-09-07T05:58:39.613Z,1007.5
2022-09-07T05:59:42.767Z,1007.5
2022-09-07T06:00:45.708Z,1007.5
2022-09-07T06:01:49.145Z,1007.5
2022-09-07T06:02:52.630Z,1007.5
2022-09-07T06:03:56.402Z,1007.5
2022-09-07T06:04:59.558Z,1007.5
2022-09-07T06:06:02.620Z,1007.5
2022-09-07T06:07:23.113Z,1007.5
2022-09-07T06:08:26.170Z,1007.5
2022-09-07T06:09:31.271Z,1007.5
2022-09-07T06:11:43.863Z,1007.6
2022-09-07T06:12:49.802Z,1007.5
2022-09-07T06:13:51.847Z,1007.6
2022-09-07T06:14:54.906Z,1007.6
2022-09-07T06:15:57.821Z,1007.6
2022-09-07T06:17:00.682Z,1007.6
2022-09-07T06:18:03.621Z,1007.6
2022-09-07T06:19:06.146Z,1007.6
2022-09-07T06:20:09.321Z,1007.6
2022-09-07T06:21:12.388Z,1007.6
2022-09-07T06:22:15.541Z,1007.6
2022-09-07T06:23:18.709Z,1007.6
2022-09-07T06:24:21.297Z,1007.6
2022-09-07T06:25:24.182Z,1007.6
2022-09-07T06:26:26.765Z,1007.6
2022-09-07T06:27:30.141Z,1007.6
2022-09-07T06:28:33.273Z,1007.6
2022-09-07T06:29:36.339Z,1007.7
2022-09-07T06:30:39.753Z,1007.6
2022-09-07T06:33:47.242Z,1007.7
2022-09-07T06:34:50.719Z,1007.8
2022-09-07T06:35:53.871Z,1007.8
2022-09-07T06:36:56.458Z,1007.9
2022-09-07T06:37:59.604Z,1007.9
2022-09-07T06:39:02.697Z,1007.9
2022-09-07T06:40:05.882Z,1008
2022-09-07T06:43:12.861Z,1008.1
2022-09-07T06:44:15.662Z,1008.1
2022-09-07T06:45:18.876Z,1008.2
2022-09-07T06:47:07.234Z,1008.3
2022-09-07T06:48:10.825Z,1008.4
2022-09-07T06:49:14.210Z,1008.4
2022-09-07T06:50:17.193Z,1008.5
2022-09-07T06:51:19.982Z,1008.5
2022-09-07T06:52:23.482Z,1008.4
2022-09-07T06:53:33.970Z,1008.4
2022-09-07T06:56:03.324Z,1008.3
2022-09-07T06:57:06.751Z,1008.2
2022-09-07T06:58:09.631Z,1008.2
2022-09-07T06:59:12.731Z,1008.2
2022-09-07T07:00:16.463Z,1008.3
2022-09-07T07:01:19.452Z,1008.3
2022-09-07T07:02:22.963Z,1008.2
2022-09-07T07:03:25.511Z,1008.3
2022-09-07T07:04:29.244Z,1008.3
2022-09-07T07:05:32.399Z,1008.2
2022-09-07T07:06:34.617Z,1008.2
2022-09-07T07:07:37.767Z,1008.1
2022-09-07T07:08:40.890Z,1008.1
2022-09-07T07:09:44.242Z,1008
2022-09-07T07:10:47.108Z,1008
2022-09-07T07:11:49.974Z,1008.1
2022-09-07T07:12:52.498Z,1008.1
2022-09-07T07:13:55.776Z,1008.2
2022-09-07T07:14:57.935Z,1008.2
2022-09-07T07:16:00.384Z,1008.2
2022-09-07T07:17:03.574Z,1008.2
2022-09-07T07:18:21.539Z,1008.1
2022-09-07T07:19:24.613Z,1008.1
2022-09-07T07:20:27.043Z,1008
2022-09-07T07:22:07.648Z,1008
2022-09-07T07:23:49.400Z,1008.1
2022-09-07T07:24:52.746Z,1008.2
2022-09-07T07:25:55.524Z,1008.2
2022-09-07T07:26:58.653Z,1008.3
2022-09-07T07:30:00.924Z,1008.2
2022-09-07T07:31:12.102Z,1008.2
2022-09-07T07:32:16.083Z,1008.1
2022-09-07T07:33:18.940Z,1008.1
2022-09-07T07:34:22.698Z,1008.2
2022-09-07T07:35:27.266Z,1008.2
2022-09-07T07:36:30.340Z,1008.2
2022-09-07T07:37:33.416Z,1008.3
2022-09-07T07:39:07.045Z,1008.2
2022-09-07T07:43:02.546Z,1008.4
2022-09-07T07:44:05.869Z,1008.5
2022-09-07T07:46:58.761Z,1008.4
2022-09-07T07:48:02.218Z,1008.4
2022-09-07T07:49:05.029Z,1008.3
2022-09-07T07:50:38.425Z,1008.3
2022-09-07T07:54:55.907Z,1008.1
2022-09-07T07:55:59.616Z,1008.2
2022-09-07T07:57:02.534Z,1008.2
2022-09-07T07:58:05.411Z,1008.2
2022-09-07T07:59:15.709Z,1008.2
2022-09-07T08:00:53.598Z,1008.1
2022-09-07T08:02:01.226Z,1008.1
2022-09-07T08:03:05.213Z,1008.1
2022-09-07T08:04:07.571Z,1008
2022-09-07T08:05:11.184Z,1008
2022-09-07T08:06:14.390Z,1008
2022-09-07T08:07:18.580Z,1008
2022-09-07T08:08:21.360Z,1008.1
2022-09-07T08:09:24.425Z,1008.1
2022-09-07T08:10:26.937Z,1008.1
2022-09-07T08:11:30.089Z,1008
2022-09-07T08:12:33.217Z,1008
2022-09-07T08:13:35.729Z,1008
2022-09-07T08:14:39.444Z,1008
2022-09-07T08:15:41.775Z,1008
2022-09-07T08:16:45.705Z,1008
2022-09-07T08:17:48.901Z,1007.9
2022-09-07T08:18:51.494Z,1007.9
2022-09-07T08:19:54.381Z,1007.9
2022-09-07T08:20:57.751Z,1007.9
2022-09-07T08:22:00.870Z,1007.9
2022-09-07T08:23:04.780Z,1007.8
2022-09-07T08:24:07.857Z,1007.8
2022-09-07T08:25:11.211Z,1007.8
2022-09-07T08:26:13.734Z,1007.7
2022-09-07T08:27:16.452Z,1007.8
2022-09-07T08:28:18.624Z,1007.7
2022-09-07T08:29:21.412Z,1007.7
2022-09-07T08:30:24.286Z,1007.7
2022-09-07T08:31:27.240Z,1007.6
2022-09-07T08:32:30.632Z,1007.6
2022-09-07T08:33:33.695Z,1007.6
2022-09-07T08:34:37.143Z,1007.7
2022-09-07T08:35:40.416Z,1007.6
2022-09-07T08:36:43.494Z,1007.7
2022-09-07T08:37:47.136Z,1007.6
2022-09-07T08:38:51.379Z,1007.6
2022-09-07T08:39:54.587Z,1007.6
2022-09-07T08:40:58.320Z,1007.6
2022-09-07T08:42:01.221Z,1007.6
2022-09-07T08:43:04.700Z,1007.5
2022-09-07T08:44:07.279Z,1007.5
2022-09-07T08:45:10.092Z,1007.5
2022-09-07T08:46:13.660Z,1007.6
2022-09-07T08:47:17.379Z,1007.5
2022-09-07T08:48:20.453Z,1007.5
2022-09-07T08:49:24.084Z,1007.5
2022-09-07T08:50:27.731Z,1007.4
2022-09-07T08:51:30.924Z,1007.4
2022-09-07T08:52:34.198Z,1007.3
2022-09-07T08:53:37.051Z,1007.3
2022-09-07T08:54:41.143Z,1007.3
2022-09-07T08:55:44.578Z,1007.2
2022-09-07T08:57:21.077Z,1007.1
2022-09-07T08:58:49.704Z,1007
2022-09-07T08:59:53.945Z,1006.9
2022-09-07T09:01:31.242Z,1006.9
2022-09-07T09:06:12.007Z,1006.9
2022-09-07T09:07:17.138Z,1006.6
2022-09-07T09:08:20.633Z,1006.6
2022-09-07T09:09:23.527Z,1006.6
2022-09-07T09:10:27.597Z,1006.6
2022-09-07T09:11:30.041Z,1006.7
2022-09-07T09:12:38.083Z,1006.8
2022-09-07T09:13:41.155Z,1006.9
2022-09-07T09:14:44.295Z,1006.9
2022-09-07T09:15:47.786Z,1007
2022-09-07T09:16:51.207Z,1006.9
2022-09-07T09:17:54.660Z,1006.9
2022-09-07T09:18:57.777Z,1006.9
2022-09-07T09:20:01.233Z,1006.9
2022-09-07T09:21:04.657Z,1006.9
2022-09-07T09:22:07.502Z,1007
2022-09-07T09:23:11.039Z,1007
2022-09-07T09:24:14.466Z,1007.1
2022-09-07T09:25:17.618Z,1007.1
2022-09-07T09:26:21.771Z,1007.1
2022-09-07T09:27:25.223Z,1007.1
2022-09-07T09:28:32.580Z,1007
2022-09-07T09:29:37.998Z,1007
2022-09-07T09:30:41.066Z,1007
2022-09-07T09:31:43.837Z,1007
2022-09-07T09:32:47.511Z,1007
2022-09-07T09:33:51.016Z,1007
2022-09-07T09:34:54.092Z,1006.9
2022-09-07T09:35:57.544Z,1006.8
2022-09-07T09:37:00.335Z,1006.9
2022-09-07T09:38:03.652Z,1006.9
2022-09-07T09:39:06.913Z,1006.9
2022-09-07T09:40:10.379Z,1006.9
2022-09-07T09:41:13.411Z,1006.9
2022-09-07T09:42:17.591Z,1007
2022-09-07T09:43:20.970Z,1007
2022-09-07T09:44:24.042Z,1007
2022-09-07T09:45:27.654Z,1007
2022-09-07T09:46:32.442Z,1007
2022-09-07T09:47:36.051Z,1007
2022-09-07T09:48:39.522Z,1007.1
2022-09-07T09:49:43.252Z,1007.1
2022-09-07T09:53:54.094Z,1007.2
2022-09-07T09:55:30.441Z,1007.2
2022-09-07T09:56:39.730Z,1007.3
2022-09-07T09:59:05.524Z,1007.3
2022-09-07T10:01:30.005Z,1007.4
2022-09-07T10:04:55.656Z,1007.5
2022-09-07T10:05:58.678Z,1007.5
2022-09-07T10:07:01.859Z,1007.5
2022-09-07T10:08:05.071Z,1007.5
2022-09-07T10:09:08.246Z,1007.5
2022-09-07T10:10:11.421Z,1007.5
2022-09-07T10:11:14.733Z,1007.6
2022-09-07T10:12:18.441Z,1007.6
2022-09-07T10:13:22.536Z,1007.6
2022-09-07T10:14:25.337Z,1007.6
2022-09-07T10:15:28.060Z,1007.6
2022-09-07T10:16:31.665Z,1007.6
2022-09-07T10:17:35.371Z,1007.6
2022-09-07T10:18:38.517Z,1007.6
2022-09-07T10:19:42.151Z,1007.5
2022-09-07T10:20:45.027Z,1007.5
2022-09-07T10:21:47.932Z,1007.5
2022-09-07T10:22:52.143Z,1007.5
2022-09-07T10:23:55.313Z,1007.4
2022-09-07T10:24:58.405Z,1007.5
2022-09-07T10:26:01.470Z,1007.6
2022-09-07T10:27:05.020Z,1007.6
2022-09-07T10:28:08.428Z,1007.6
2022-09-07T10:29:13.336Z,1007.5
2022-09-07T10:30:18.803Z,1007.5
2022-09-07T10:31:22.167Z,1007.4
2022-09-07T10:32:25.367Z,1007.4
2022-09-07T10:33:28.040Z,1007.4
2022-09-07T10:34:30.764Z,1007.3
2022-09-07T10:35:33.707Z,1007.3
2022-09-07T10:36:36.696Z,1007.2
2022-09-07T10:37:39.404Z,1007.2
2022-09-07T10:38:42.489Z,1007.1
2022-09-07T10:39:46.587Z,1007.1
2022-09-07T10:40:50.202Z,1007
2022-09-07T10:41:53.432Z,1007
2022-09-07T10:43:26.516Z,1007
2022-09-07T10:44:30.556Z,1006.9
2022-09-07T10:45:34.171Z,1007
2022-09-07T10:47:06.995Z,1006.9
2022-09-07T10:48:10.733Z,1006.9
2022-09-07T10:49:13.821Z,1006.9
2022-09-07T10:50:24.363Z,1006.9
2022-09-07T10:51:27.687Z,1006.9
2022-09-07T10:52:30.868Z,1006.9
2022-09-07T10:53:43.230Z,1006.9
2022-09-07T10:54:48.243Z,1006.9
2022-09-07T10:55:52.405Z,1006.9
2022-09-07T10:56:55.226Z,1006.8
2022-09-07T10:57:58.086Z,1006.8
2022-09-07T10:59:04.164Z,1006.8
2022-09-07T11:00:10.298Z,1006.8
2022-09-07T11:01:14.952Z,1006.7
2022-09-07T11:02:18.624Z,1006.7
2022-09-07T11:03:29.164Z,1006.7
2022-09-07T11:04:32.741Z,1006.7
2022-09-07T11:05:38.958Z,1006.7
2022-09-07T11:06:42.572Z,1006.6
2022-09-07T11:07:45.790Z,1006.5
2022-09-07T11:09:19.714Z,1006.5
2022-09-07T11:10:23.757Z,1006.5
2022-09-07T11:12:02.203Z,1006.5
2022-09-07T11:13:06.978Z,1006.5
2022-09-07T11:14:14.233Z,1006.5
2022-09-07T11:15:18.398Z,1006.4
2022-09-07T11:16:51.438Z,1006.3
2022-09-07T11:17:55.571Z,1006.4
2022-09-07T11:19:37.159Z,1006.4
2022-09-07T11:20:40.793Z,1006.4
2022-09-07T11:21:59.216Z,1006.3
2022-09-07T11:23:02.852Z,1006.3
2022-09-07T11:24:05.443Z,1006.4
2022-09-07T11:25:38.509Z,1006.3
2022-09-07T11:26:41.802Z,1006.3
2022-09-07T11:27:44.705Z,1006.3
2022-09-07T11:29:28.725Z,1006.3
2022-09-07T11:30:33.355Z,1006.3
2022-09-07T11:31:38.634Z,1006.3
2022-09-07T11:32:41.799Z,1006.2
2022-09-07T11:34:24.762Z,1006.2
2022-09-07T11:35:28.130Z,1006.2
2022-09-07T11:36:31.475Z,1006.3
2022-09-07T11:37:34.905Z,1006.3
2022-09-07T11:38:38.395Z,1006.2
2022-09-07T11:39:41.552Z,1006.2
2022-09-07T11:40:44.574Z,1006.2
2022-09-07T11:41:48.304Z,1006.2
2022-09-07T11:42:50.969Z,1006.2
2022-09-07T11:43:54.135Z,1006.2
2022-09-07T11:44:57.287Z,1006.2
2022-09-07T11:46:01.683Z,1006.2
2022-09-07T11:47:05.463Z,1006.2
2022-09-07T11:48:08.684Z,1006.3
2022-09-07T11:49:11.842Z,1006.2
2022-09-07T11:50:15.301Z,1006.2
2022-09-07T11:51:19.004Z,1006.2
2022-09-07T11:52:22.741Z,1006.2
2022-09-07T11:53:25.426Z,1006.3
2022-09-07T11:54:28.770Z,1006.3
2022-09-07T11:55:31.770Z,1006.4
2022-09-07T11:56:37.854Z,1006.4
2022-09-07T11:57:40.942Z,1006.3
2022-09-07T11:58:44.291Z,1006.3
2022-09-07T11:59:46.891Z,1006.3
2022-09-07T12:00:49.773Z,1006.3
2022-09-07T12:01:53.963Z,1006.4
2022-09-07T12:03:01.118Z,1006.3
2022-09-07T12:04:04.324Z,1006.4
2022-09-07T12:05:08.462Z,1006.3
2022-09-07T12:06:11.171Z,1006.3
2022-09-07T12:07:13.965Z,1006.3
2022-09-07T12:08:17.102Z,1006.3
2022-09-07T12:09:20.762Z,1006.3
2022-09-07T12:10:24.385Z,1006.3
2022-09-07T12:11:27.260Z,1006.3
2022-09-07T12:12:30.347Z,1006.3
2022-09-07T12:13:33.781Z,1006.3
2022-09-07T12:14:37.209Z,1006.3
2022-09-07T12:15:40.145Z,1006.3
2022-09-07T12:16:43.716Z,1006.3
2022-09-07T12:17:47.921Z,1006.3
2022-09-07T12:18:50.744Z,1006.2
2022-09-07T12:19:53.052Z,1006.3
2022-09-07T12:20:55.846Z,1006.3
2022-09-07T12:21:59.763Z,1006.3
2022-09-07T12:23:05.920Z,1006.3
2022-09-07T12:24:09.002Z,1006.3
2022-09-07T12:25:12.106Z,1006.3
2022-09-07T12:26:14.912Z,1006.3
2022-09-07T12:27:17.149Z,1006.3
2022-09-07T12:28:22.411Z,1006.4
2022-09-07T12:29:26.150Z,1006.4
2022-09-07T12:30:29.315Z,1006.4
2022-09-07T12:31:58.546Z,1006.5
2022-09-07T12:34:01.201Z,1006.5
2022-09-07T12:35:03.986Z,1006.6
2022-09-07T12:36:06.571Z,1006.5
2022-09-07T12:37:13.046Z,1006.5
2022-09-07T12:38:15.994Z,1006.5
2022-09-07T12:39:19.446Z,1006.5
2022-09-07T12:40:22.248Z,1006.4
2022-09-07T12:41:25.597Z,1006.4
2022-09-07T12:42:38.002Z,1006.5
2022-09-07T12:43:40.884Z,1006.4
2022-09-07T12:44:43.598Z,1006.5
2022-09-07T12:45:46.954Z,1006.5
2022-09-07T12:46:50.234Z,1006.5
2022-09-07T12:47:53.231Z,1006.5
2022-09-07T12:48:56.481Z,1006.6
2022-09-07T12:50:00.347Z,1006.6
2022-09-07T12:51:04.268Z,1006.5
2022-09-07T12:52:16.315Z,1006.5
2022-09-07T12:53:19.680Z,1006.5
2022-09-07T12:54:22.510Z,1006.5
2022-09-07T12:55:29.836Z,1006.4
2022-09-07T12:56:35.340Z,1006.4
2022-09-07T12:57:38.727Z,1006.4
2022-09-07T12:58:42.163Z,1006.4
2022-09-07T12:59:45.665Z,1006.4
2022-09-07T13:00:48.676Z,1006.3
2022-09-07T13:01:51.775Z,1006.3
2022-09-07T13:02:57.013Z,1006.3
2022-09-07T13:04:00.976Z,1006.2
2022-09-07T13:05:05.059Z,1006.3
2022-09-07T13:06:10.240Z,1006.2
2022-09-07T13:07:13.612Z,1006.2
2022-09-07T13:08:17.060Z,1006.2
2022-09-07T13:09:20.610Z,1006.2
2022-09-07T13:10:24.338Z,1006.2
2022-09-07T13:11:27.405Z,1006.2
2022-09-07T13:12:59.830Z,1006.2
2022-09-07T13:14:11.501Z,1006.1
2022-09-07T13:15:24.684Z,1006.1
2022-09-07T13:16:28.496Z,1006.1
2022-09-07T13:17:34.033Z,1006.1
2022-09-07T13:18:37.478Z,1006.1
2022-09-07T13:19:41.769Z,1006.1
2022-09-07T13:20:45.973Z,1006.1
2022-09-07T13:21:49.151Z,1006.1
2022-09-07T13:22:52.145Z,1006.1
2022-09-07T13:23:56.516Z,1006.1
2022-09-07T13:25:00.735Z,1006.1
2022-09-07T13:26:04.083Z,1006.1
2022-09-07T13:27:07.453Z,1006.2
2022-09-07T13:28:11.239Z,1006.2
2022-09-07T13:29:14.373Z,1006.2
2022-09-07T13:30:17.304Z,1006.3
2022-09-07T13:31:22.381Z,1006.3
2022-09-07T13:33:08.913Z,1006.3
2022-09-07T13:34:12.098Z,1006.3
2022-09-07T13:35:15.868Z,1006.3
2022-09-07T13:36:19.554Z,1006.3
2022-09-07T13:37:22.625Z,1006.3
2022-09-07T13:38:25.420Z,1006.3
2022-09-07T13:39:28.891Z,1006.2
2022-09-07T13:40:32.837Z,1006.2
2022-09-07T13:41:36.028Z,1006.2
2022-09-07T13:42:38.552Z,1006.2
2022-09-07T13:43:41.425Z,1006.2
2022-09-07T13:44:44.224Z,1006.2
2022-09-07T13:45:48.331Z,1006.1
2022-09-07T13:46:52.080Z,1006.1
2022-09-07T13:47:55.703Z,1006.1
2022-09-07T13:48:58.790Z,1006.1
2022-09-07T13:50:02.486Z,1006.1
2022-09-07T13:51:05.416Z,1006.1
2022-09-07T13:52:09.605Z,1006.1
2022-09-07T13:53:13.325Z,1006.1
2022-09-07T13:54:16.273Z,1006.1
2022-09-07T13:55:25.913Z,1006.1
2022-09-07T13:56:29.768Z,1006.1
2022-09-07T13:57:32.561Z,1006.1
2022-09-07T13:58:35.998Z,1006.1
2022-09-07T13:59:38.857Z,1006.1
2022-09-07T14:00:42.202Z,1006.1
2022-09-07T14:01:45.009Z,1006.1
2022-09-07T14:02:49.686Z,1006.1
2022-09-07T14:04:00.108Z,1006.1